createdAt,value
2018-09-26T00:00:45.513Z,3.36
2018-09-26T00:01:45.512Z,3.39
2018-09-26T00:02:45.533Z,3.36
2018-09-26T00:03:45.501Z,3.39
2018-09-26T00:04:45.500Z,3.43
2018-09-26T00:05:45.488Z,3.43
2018-09-26T00:06:45.479Z,3.46
2018-09-26T00:07:45.513Z,3.47
2018-09-26T00:08:45.465Z,3.49
2018-09-26T00:09:45.471Z,3.40
2018-09-26T00:10:45.638Z,3.40
2018-09-26T00:11:45.485Z,3.40
2018-09-26T00:12:45.449Z,3.34
2018-09-26T00:13:45.477Z,3.42
2018-09-26T00:14:45.440Z,3.46
2018-09-26T00:15:45.434Z,3.39
2018-09-26T00:16:45.421Z,3.42
2018-09-26T00:17:45.449Z,3.27
2018-09-26T00:18:45.417Z,3.42
2018-09-26T00:19:45.409Z,3.40
2018-09-26T00:20:45.405Z,3.33
2018-09-26T00:21:45.528Z,3.39
2018-09-26T00:22:45.417Z,3.36
2018-09-26T00:23:45.389Z,3.36
2018-09-26T00:24:45.386Z,3.46
2018-09-26T00:25:45.377Z,3.34
2018-09-26T00:26:45.369Z,3.27
2018-09-26T00:27:45.388Z,3.25
2018-09-26T00:28:45.358Z,3.10
2018-09-26T00:29:45.353Z,3.00
2018-09-26T00:30:45.353Z,3.09
2018-09-26T00:31:45.342Z,3.05
2018-09-26T00:32:45.365Z,3.00
2018-09-26T00:33:45.329Z,3.06
2018-09-26T00:34:45.323Z,3.05
2018-09-26T00:35:45.324Z,3.12
2018-09-26T00:36:45.313Z,3.28
2018-09-26T00:37:45.334Z,3.24
2018-09-26T00:38:45.301Z,3.25
2018-09-26T00:39:45.297Z,3.24
2018-09-26T00:40:45.286Z,3.24
2018-09-26T00:41:45.277Z,3.25
2018-09-26T00:42:45.306Z,3.39
2018-09-26T00:43:45.270Z,3.30
2018-09-26T00:44:45.269Z,3.30
2018-09-26T00:45:45.253Z,3.23
2018-09-26T00:46:45.254Z,3.21
2018-09-26T00:47:45.283Z,3.20
2018-09-26T00:48:45.237Z,3.24
2018-09-26T00:49:45.229Z,3.20
2018-09-26T00:50:45.230Z,3.21
2018-09-26T00:51:45.226Z,3.23
2018-09-26T00:52:45.246Z,3.10
2018-09-26T00:53:45.205Z,3.18
2018-09-26T00:54:45.201Z,3.12
2018-09-26T00:55:45.207Z,2.97
2018-09-26T00:56:45.194Z,3.06
2018-09-26T00:57:45.218Z,3.00
2018-09-26T00:58:45.183Z,3.02
2018-09-26T00:59:45.178Z,3.06
2018-09-26T01:00:45.173Z,3.27
2018-09-26T01:01:45.301Z,3.27
2018-09-26T01:02:45.186Z,3.25
2018-09-26T01:03:45.154Z,3.33
2018-09-26T01:04:45.144Z,3.30
2018-09-26T01:05:45.143Z,3.33
2018-09-26T01:06:45.130Z,3.30
2018-09-26T01:07:45.158Z,3.27
2018-09-26T01:08:45.125Z,3.21
2018-09-26T01:09:45.116Z,3.27
2018-09-26T01:10:45.110Z,3.30
2018-09-26T01:11:45.133Z,3.27
2018-09-26T01:12:45.098Z,3.30
2018-09-26T01:13:45.093Z,3.44
2018-09-26T01:14:45.089Z,3.46
2018-09-26T01:15:45.076Z,3.40
2018-09-26T01:16:45.102Z,3.46
2018-09-26T01:17:45.086Z,3.31
2018-09-26T01:18:45.058Z,3.34
2018-09-26T01:19:45.055Z,3.40
2018-09-26T01:20:45.051Z,3.28
2018-09-26T01:21:45.052Z,3.24
2018-09-26T01:22:45.067Z,3.27
2018-09-26T01:23:45.030Z,3.33
2018-09-26T01:24:45.026Z,3.36
2018-09-26T01:25:45.022Z,3.34
2018-09-26T01:26:45.048Z,3.46
2018-09-26T01:27:45.026Z,3.43
2018-09-26T01:28:45.014Z,3.49
2018-09-26T01:29:44.998Z,3.52
2018-09-26T01:30:44.997Z,3.46
2018-09-26T01:31:44.983Z,3.42
2018-09-26T01:32:45.007Z,3.27
2018-09-26T01:33:44.966Z,3.13
2018-09-26T01:34:44.979Z,3.20
2018-09-26T01:35:44.969Z,3.16
2018-09-26T01:36:44.966Z,3.20
2018-09-26T01:37:44.998Z,3.13
2018-09-26T01:38:44.954Z,3.21
2018-09-26T01:39:44.949Z,3.25
2018-09-26T01:40:44.942Z,3.28
2018-09-26T01:41:44.936Z,3.33
2018-09-26T01:42:44.956Z,3.36
2018-09-26T01:43:44.923Z,3.34
2018-09-26T01:44:44.927Z,3.27
2018-09-26T01:45:44.911Z,3.31
2018-09-26T01:46:44.907Z,3.36
2018-09-26T01:47:44.929Z,3.49
2018-09-26T01:48:44.895Z,3.43
2018-09-26T01:49:44.895Z,3.47
2018-09-26T01:50:44.882Z,3.40
2018-09-26T01:51:44.883Z,3.28
2018-09-26T01:52:44.898Z,3.30
2018-09-26T01:53:44.864Z,3.24
2018-09-26T01:54:44.858Z,3.16
2018-09-26T01:55:44.853Z,3.25
2018-09-26T01:56:44.847Z,3.20
2018-09-26T01:57:44.863Z,3.20
2018-09-26T01:58:44.834Z,3.23
2018-09-26T01:59:44.826Z,3.25
2018-09-26T02:00:44.829Z,3.25
2018-09-26T02:01:44.819Z,3.16
2018-09-26T02:02:44.850Z,3.02
2018-09-26T02:03:44.807Z,3.10
2018-09-26T02:04:44.798Z,2.98
2018-09-26T02:05:44.795Z,2.97
2018-09-26T02:06:44.790Z,3.09
2018-09-26T02:07:44.807Z,3.00
2018-09-26T02:08:44.803Z,3.02
2018-09-26T02:09:44.772Z,3.05
2018-09-26T02:10:44.764Z,3.09
2018-09-26T02:11:44.759Z,2.98
2018-09-26T02:12:44.751Z,3.00
2018-09-26T02:13:44.771Z,2.95
2018-09-26T02:14:44.739Z,2.91
2018-09-26T02:15:44.737Z,2.89
2018-09-26T02:16:44.726Z,2.94
2018-09-26T02:17:44.726Z,2.92
2018-09-26T02:18:44.743Z,2.88
2018-09-26T02:19:44.711Z,2.84
2018-09-26T02:20:44.702Z,2.82
2018-09-26T02:21:44.699Z,2.85
2018-09-26T02:22:44.692Z,2.94
2018-09-26T02:23:44.725Z,2.84
2018-09-26T02:24:44.677Z,3.02
2018-09-26T02:25:44.675Z,3.05
2018-09-26T02:26:44.672Z,3.05
2018-09-26T02:27:44.663Z,2.97
2018-09-26T02:28:44.680Z,2.85
2018-09-26T02:29:44.651Z,2.89
2018-09-26T02:30:44.646Z,2.79
2018-09-26T02:31:44.642Z,2.91
2018-09-26T02:32:44.627Z,2.82
2018-09-26T02:33:44.651Z,2.87
2018-09-26T02:34:44.620Z,2.84
2018-09-26T02:35:44.617Z,2.79
2018-09-26T02:36:44.606Z,2.74
2018-09-26T02:37:44.600Z,2.95
2018-09-26T02:38:44.595Z,2.84
2018-09-26T02:39:44.637Z,3.00
2018-09-26T02:40:44.582Z,3.18
2018-09-26T02:41:45.115Z,3.43
2018-09-26T02:42:44.570Z,4.04
2018-09-26T02:43:44.592Z,4.50
2018-09-26T02:44:44.559Z,4.54
2018-09-26T02:45:44.553Z,4.64
2018-09-26T02:46:44.548Z,5.04
2018-09-26T02:47:44.539Z,5.20
2018-09-26T02:48:44.563Z,5.31
2018-09-26T02:49:44.527Z,5.30
2018-09-26T02:50:44.544Z,5.57
2018-09-26T02:51:44.516Z,5.70
2018-09-26T02:52:44.514Z,5.63
2018-09-26T02:53:44.532Z,5.81
2018-09-26T02:54:44.499Z,5.91
2018-09-26T02:55:44.556Z,5.93
2018-09-26T02:56:44.489Z,5.85
2018-09-26T02:57:44.479Z,5.96
2018-09-26T02:58:44.505Z,5.77
2018-09-26T02:59:44.468Z,5.83
2018-09-26T03:00:44.520Z,5.78
2018-09-26T03:01:44.460Z,5.74
2018-09-26T03:02:44.458Z,5.66
2018-09-26T03:03:44.479Z,5.59
2018-09-26T03:04:44.444Z,5.75
2018-09-26T03:05:44.438Z,5.68
2018-09-26T03:06:44.437Z,5.82
2018-09-26T03:07:44.431Z,5.70
2018-09-26T03:08:44.448Z,5.68
2018-09-26T03:09:44.416Z,5.70
2018-09-26T03:10:44.434Z,5.63
2018-09-26T03:11:44.417Z,5.64
2018-09-26T03:12:44.407Z,5.64
2018-09-26T03:13:44.428Z,5.60
2018-09-26T03:14:44.396Z,5.55
2018-09-26T03:15:44.387Z,5.45
2018-09-26T03:16:44.383Z,5.34
2018-09-26T03:17:44.489Z,5.16
2018-09-26T03:18:44.399Z,5.13
2018-09-26T03:19:44.374Z,4.99
2018-09-26T03:20:44.358Z,4.94
2018-09-26T03:21:44.359Z,4.77
2018-09-26T03:22:44.350Z,4.76
2018-09-26T03:23:44.388Z,4.64
2018-09-26T03:24:44.343Z,4.73
2018-09-26T03:25:44.343Z,4.92
2018-09-26T03:26:44.331Z,4.94
2018-09-26T03:27:44.328Z,5.04
2018-09-26T03:28:44.352Z,5.09
2018-09-26T03:29:44.323Z,5.19
2018-09-26T03:30:44.313Z,5.10
2018-09-26T03:31:44.306Z,5.25
2018-09-26T03:32:44.302Z,5.37
2018-09-26T03:33:44.395Z,5.48
2018-09-26T03:34:44.310Z,5.64
2018-09-26T03:35:44.282Z,5.64
2018-09-26T03:36:44.284Z,5.59
2018-09-26T03:37:44.270Z,5.73
2018-09-26T03:38:44.303Z,5.68
2018-09-26T03:39:44.273Z,5.78
2018-09-26T03:40:44.255Z,5.66
2018-09-26T03:41:44.255Z,5.71
2018-09-26T03:42:44.253Z,5.73
2018-09-26T03:43:44.272Z,5.70
2018-09-26T03:44:44.235Z,5.74
2018-09-26T03:45:44.235Z,5.70
2018-09-26T03:46:44.293Z,5.63
2018-09-26T03:47:44.222Z,5.55
2018-09-26T03:48:44.242Z,5.63
2018-09-26T03:49:44.214Z,5.52
2018-09-26T03:50:44.211Z,5.43
2018-09-26T03:51:44.209Z,5.37
2018-09-26T03:52:44.194Z,5.13
2018-09-26T03:53:44.221Z,4.92
2018-09-26T03:54:44.189Z,4.86
2018-09-26T03:55:44.188Z,4.50
2018-09-26T03:56:44.181Z,4.50
2018-09-26T03:57:44.172Z,4.33
2018-09-26T03:58:44.200Z,4.15
2018-09-26T03:59:44.166Z,4.07
2018-09-26T04:00:44.173Z,3.88
2018-09-26T04:01:44.154Z,3.94
2018-09-26T04:02:44.150Z,3.72
2018-09-26T04:03:44.174Z,3.60
2018-09-26T04:04:44.186Z,3.64
2018-09-26T04:05:44.139Z,3.53
2018-09-26T04:06:44.127Z,3.50
2018-09-26T04:07:44.122Z,3.50
2018-09-26T04:08:44.144Z,3.49
2018-09-26T04:09:44.117Z,3.50
2018-09-26T04:10:44.103Z,3.52
2018-09-26T04:11:44.106Z,3.43
2018-09-26T04:12:44.173Z,3.47
2018-09-26T04:13:44.118Z,3.42
2018-09-26T04:14:44.117Z,3.23
2018-09-26T04:15:44.149Z,3.28
2018-09-26T04:16:44.091Z,3.24
2018-09-26T04:17:44.070Z,3.25
2018-09-26T04:18:44.060Z,3.31
2018-09-26T04:19:44.088Z,3.27
2018-09-26T04:20:44.050Z,3.02
2018-09-26T04:21:44.052Z,2.98
2018-09-26T04:22:44.046Z,2.94
2018-09-26T04:23:44.039Z,2.82
2018-09-26T04:24:44.061Z,2.74
2018-09-26T04:25:44.020Z,2.76
2018-09-26T04:26:44.108Z,2.77
2018-09-26T04:27:44.098Z,2.94
2018-09-26T04:28:44.010Z,3.07
2018-09-26T04:29:44.045Z,3.09
2018-09-26T04:30:44.008Z,3.09
2018-09-26T04:31:43.991Z,3.07
2018-09-26T04:32:44.043Z,2.95
2018-09-26T04:33:44.103Z,2.97
2018-09-26T04:34:44.003Z,2.95
2018-09-26T04:35:43.962Z,2.95
2018-09-26T04:36:43.958Z,3.07
2018-09-26T04:37:43.953Z,3.07
2018-09-26T04:38:44.008Z,3.02
2018-09-26T04:39:43.970Z,3.09
2018-09-26T04:40:43.934Z,3.03
2018-09-26T04:41:43.930Z,3.13
2018-09-26T04:42:43.922Z,3.09
2018-09-26T04:43:43.918Z,3.05
2018-09-26T04:44:43.935Z,3.07
2018-09-26T04:45:43.939Z,3.02
2018-09-26T04:46:43.902Z,2.94
2018-09-26T04:47:43.899Z,2.87
2018-09-26T04:48:43.882Z,2.87
2018-09-26T04:49:43.886Z,2.91
2018-09-26T04:50:43.956Z,2.84
2018-09-26T04:51:43.873Z,2.82
2018-09-26T04:52:43.866Z,2.79
2018-09-26T04:53:43.860Z,2.84
2018-09-26T04:54:43.854Z,2.73
2018-09-26T04:55:43.882Z,2.81
2018-09-26T04:56:43.842Z,2.77
2018-09-26T04:57:43.841Z,2.74
2018-09-26T04:58:43.830Z,2.77
2018-09-26T04:59:43.823Z,2.77
2018-09-26T05:00:43.848Z,2.79
2018-09-26T05:01:43.810Z,2.71
2018-09-26T05:02:43.806Z,2.66
2018-09-26T05:03:43.801Z,2.67
2018-09-26T05:04:43.794Z,2.70
2018-09-26T05:05:43.820Z,2.69
2018-09-26T05:06:43.782Z,2.58
2018-09-26T05:07:43.781Z,2.66
2018-09-26T05:08:43.770Z,2.51
2018-09-26T05:09:43.759Z,2.52
2018-09-26T05:10:43.787Z,2.46
2018-09-26T05:11:43.754Z,2.48
2018-09-26T05:12:43.744Z,2.30
2018-09-26T05:13:43.735Z,2.38
2018-09-26T05:14:43.814Z,2.52
2018-09-26T05:15:43.771Z,2.58
2018-09-26T05:16:43.715Z,2.61
2018-09-26T05:17:43.711Z,2.67
2018-09-26T05:18:43.714Z,2.69
2018-09-26T05:19:43.699Z,2.67
2018-09-26T05:20:43.722Z,2.48
2018-09-26T05:21:43.757Z,2.51
2018-09-26T05:22:43.694Z,2.52
2018-09-26T05:23:43.678Z,2.59
2018-09-26T05:24:43.670Z,2.53
2018-09-26T05:25:43.697Z,2.58
2018-09-26T05:26:43.687Z,2.40
2018-09-26T05:27:43.654Z,2.48
2018-09-26T05:28:43.652Z,2.49
2018-09-26T05:29:43.643Z,2.49
2018-09-26T05:30:43.636Z,2.52
2018-09-26T05:31:43.654Z,2.59
2018-09-26T05:32:43.629Z,2.69
2018-09-26T05:33:43.616Z,2.67
2018-09-26T05:34:43.614Z,2.67
2018-09-26T05:35:43.630Z,2.71
2018-09-26T05:36:43.598Z,2.67
2018-09-26T05:37:43.590Z,2.84
2018-09-26T05:38:43.586Z,2.71
2018-09-26T05:39:43.578Z,2.92
2018-09-26T05:40:44.070Z,2.94
2018-09-26T05:41:43.753Z,2.88
2018-09-26T05:42:43.565Z,2.92
2018-09-26T05:43:43.557Z,2.84
2018-09-26T05:44:43.551Z,3.00
2018-09-26T05:45:43.573Z,2.97
2018-09-26T05:46:43.538Z,3.06
2018-09-26T05:47:43.533Z,3.05
2018-09-26T05:48:48.012Z,3.20
2018-09-26T05:49:43.896Z,3.23
2018-09-26T05:50:47.814Z,3.30
2018-09-26T05:51:45.506Z,3.31
2018-09-26T05:52:55.001Z,3.40
2018-09-26T05:53:46.473Z,3.44
2018-09-26T05:55:44.474Z,3.36
2018-09-26T05:56:46.499Z,3.39
2018-09-26T05:57:44.994Z,3.36
2018-09-26T05:58:46.116Z,3.39
2018-09-26T05:59:50.475Z,3.47
2018-09-26T06:00:48.035Z,3.54
2018-09-26T06:01:45.542Z,3.67
2018-09-26T06:02:43.707Z,3.61
2018-09-26T06:03:44.215Z,3.88
2018-09-26T06:04:49.476Z,3.89
2018-09-26T06:05:45.475Z,3.86
2018-09-26T06:06:44.649Z,3.90
2018-09-26T06:07:43.764Z,3.94
2018-09-26T06:08:44.092Z,3.88
2018-09-26T06:09:45.979Z,4.01
2018-09-26T06:10:46.523Z,3.90
2018-09-26T06:11:43.467Z,3.98
2018-09-26T06:12:43.619Z,4.04
2018-09-26T06:13:46.154Z,4.21
2018-09-26T06:14:49.602Z,4.40
2018-09-26T06:15:43.516Z,4.67
2018-09-26T06:16:44.172Z,4.94
2018-09-26T06:17:43.979Z,5.01
2018-09-26T06:18:46.236Z,5.46
2018-09-26T06:19:43.430Z,5.96
2018-09-26T06:20:44.154Z,6.63
2018-09-26T06:21:45.052Z,6.73
2018-09-26T06:22:46.485Z,7.01
2018-09-26T06:23:46.413Z,7.08
2018-09-26T06:24:55.433Z,7.17
2018-09-26T06:25:46.264Z,7.35
2018-09-26T06:26:45.475Z,6.97
2018-09-26T06:27:44.508Z,6.59
2018-09-26T06:28:44.153Z,6.53
2018-09-26T06:29:44.846Z,6.84
2018-09-26T06:30:43.316Z,7.01
2018-09-26T06:31:43.307Z,7.15
2018-09-26T06:32:43.300Z,7.56
2018-09-26T06:33:43.295Z,7.93
2018-09-26T06:34:43.320Z,8.02
2018-09-26T06:35:43.291Z,8.29
2018-09-26T06:36:43.317Z,8.51
2018-09-26T06:37:43.283Z,8.62
2018-09-26T06:38:43.279Z,8.55
2018-09-26T06:39:43.283Z,8.54
2018-09-26T06:40:43.301Z,8.55
2018-09-26T06:41:43.297Z,8.60
2018-09-26T06:42:43.276Z,8.66
2018-09-26T06:43:43.263Z,8.79
2018-09-26T06:44:43.265Z,8.71
2018-09-26T06:45:43.299Z,8.91
2018-09-26T06:46:43.263Z,9.05
2018-09-26T06:47:43.259Z,8.87
2018-09-26T06:48:43.255Z,9.04
2018-09-26T06:49:43.256Z,9.04
2018-09-26T06:50:43.279Z,9.18
2018-09-26T06:51:43.255Z,8.97
2018-09-26T06:52:43.250Z,9.30
2018-09-26T06:53:43.252Z,9.63
2018-09-26T06:54:43.250Z,10.00
2018-09-26T06:55:43.276Z,10.17
2018-09-26T06:56:43.240Z,9.99
2018-09-26T06:57:44.107Z,9.78
2018-09-26T06:58:43.428Z,9.48
2018-09-26T06:59:43.246Z,9.58
2018-09-26T07:00:43.265Z,9.66
2018-09-26T07:01:43.241Z,9.53
2018-09-26T07:02:43.238Z,9.39
2018-09-26T07:03:43.240Z,9.53
2018-09-26T07:04:43.241Z,9.79
2018-09-26T07:05:43.267Z,9.49
2018-09-26T07:06:43.271Z,9.61
2018-09-26T07:07:43.235Z,9.94
2018-09-26T07:08:43.236Z,10.32
2018-09-26T07:09:43.237Z,10.71
2018-09-26T07:10:43.239Z,11.10
2018-09-26T07:11:43.262Z,11.46
2018-09-26T07:12:43.238Z,11.67
2018-09-26T07:13:43.244Z,11.75
2018-09-26T07:14:43.237Z,11.80
2018-09-26T07:15:43.240Z,12.08
2018-09-26T07:16:43.260Z,12.24
2018-09-26T07:17:43.236Z,12.31
2018-09-26T07:18:43.241Z,12.39
2018-09-26T07:19:43.235Z,12.34
2018-09-26T07:20:43.234Z,12.46
2018-09-26T07:21:43.264Z,12.51
2018-09-26T07:22:43.249Z,12.64
2018-09-26T07:23:43.243Z,12.74
2018-09-26T07:24:43.240Z,12.99
2018-09-26T07:25:43.240Z,12.97
2018-09-26T07:26:43.269Z,12.66
2018-09-26T07:27:43.242Z,12.48
2018-09-26T07:28:43.240Z,12.37
2018-09-26T07:29:43.256Z,12.48
2018-09-26T07:30:43.244Z,12.46
2018-09-26T07:31:43.277Z,12.12
2018-09-26T07:32:43.244Z,11.80
2018-09-26T07:33:43.247Z,11.86
2018-09-26T07:34:43.245Z,11.89
2018-09-26T07:35:43.252Z,12.23
2018-09-26T07:36:43.277Z,12.51
2018-09-26T07:37:43.254Z,12.45
2018-09-26T07:38:43.260Z,12.70
2018-09-26T07:39:43.256Z,13.00
2018-09-26T07:40:43.258Z,13.33
2018-09-26T07:41:43.286Z,13.41
2018-09-26T07:42:43.259Z,13.30
2018-09-26T07:43:43.258Z,13.52
2018-09-26T07:44:43.269Z,13.71
2018-09-26T07:45:43.365Z,14.01
2018-09-26T07:46:43.296Z,13.89
2018-09-26T07:47:43.305Z,13.74
2018-09-26T07:48:43.269Z,13.62
2018-09-26T07:49:43.268Z,13.74
2018-09-26T07:50:43.272Z,13.76
2018-09-26T07:51:43.277Z,13.74
2018-09-26T07:52:43.310Z,13.87
2018-09-26T07:53:43.277Z,13.95
2018-09-26T07:54:43.285Z,14.14
2018-09-26T07:55:43.281Z,14.37
2018-09-26T07:56:43.293Z,14.74
2018-09-26T07:57:43.499Z,14.95
2018-09-26T07:58:43.295Z,15.09
2018-09-26T07:59:43.377Z,15.01
2018-09-26T08:00:43.330Z,15.06
2018-09-26T08:01:43.330Z,15.13
2018-09-26T08:02:43.312Z,15.28
2018-09-26T08:03:43.309Z,15.43
2018-09-26T08:04:43.312Z,15.38
2018-09-26T08:05:43.317Z,14.95
2018-09-26T08:06:43.352Z,14.44
2018-09-26T08:07:43.353Z,14.84
2018-09-26T08:08:43.333Z,15.02
2018-09-26T08:09:43.330Z,15.28
2018-09-26T08:10:43.333Z,15.54
2018-09-26T08:11:43.376Z,15.21
2018-09-26T08:12:43.369Z,14.38
2018-09-26T08:13:43.352Z,13.58
2018-09-26T08:14:43.349Z,12.97
2018-09-26T08:15:43.368Z,13.32
2018-09-26T08:16:43.361Z,13.70
2018-09-26T08:17:43.391Z,14.09
2018-09-26T08:18:43.479Z,14.20
2018-09-26T08:19:43.374Z,14.21
2018-09-26T08:20:43.377Z,14.24
2018-09-26T08:21:43.445Z,13.98
2018-09-26T08:22:43.381Z,14.43
2018-09-26T08:23:43.390Z,14.78
2018-09-26T08:24:43.391Z,14.35
2018-09-26T08:25:43.399Z,13.43
2018-09-26T08:26:43.434Z,13.58
2018-09-26T08:27:43.403Z,14.06
2018-09-26T08:28:43.412Z,14.60
2018-09-26T08:29:43.438Z,14.91
2018-09-26T08:30:43.424Z,15.02
2018-09-26T08:31:43.456Z,15.51
2018-09-26T08:32:43.456Z,15.15
2018-09-26T08:33:43.437Z,14.37
2018-09-26T08:34:43.447Z,14.74
2018-09-26T08:35:43.447Z,15.33
2018-09-26T08:36:43.454Z,15.76
2018-09-26T08:37:43.485Z,16.38
2018-09-26T08:38:43.461Z,16.90
2018-09-26T08:39:43.469Z,16.70
2018-09-26T08:40:43.475Z,16.83
2018-09-26T08:41:43.482Z,16.38
2018-09-26T08:42:43.513Z,15.09
2018-09-26T08:43:43.499Z,15.05
2018-09-26T08:44:43.497Z,15.49
2018-09-26T08:45:43.499Z,15.23
2018-09-26T08:46:43.509Z,15.74
2018-09-26T08:47:43.545Z,15.86
2018-09-26T08:48:43.521Z,15.94
2018-09-26T08:49:43.549Z,15.96
2018-09-26T08:50:43.538Z,15.96
2018-09-26T08:51:43.543Z,16.25
2018-09-26T08:52:43.549Z,16.23
2018-09-26T08:53:43.629Z,16.15
2018-09-26T08:54:43.566Z,15.94
2018-09-26T08:55:43.570Z,16.16
2018-09-26T08:56:43.578Z,15.94
2018-09-26T08:57:43.702Z,15.08
2018-09-26T08:58:43.593Z,15.26
2018-09-26T08:59:43.676Z,15.74
2018-09-26T09:00:43.605Z,15.49
2018-09-26T09:01:43.613Z,15.78
2018-09-26T09:02:43.658Z,15.82
2018-09-26T09:03:43.666Z,15.52
2018-09-26T09:04:43.637Z,15.06
2018-09-26T09:05:43.649Z,14.91
2018-09-26T09:06:43.655Z,14.78
2018-09-26T09:07:43.696Z,14.65
2018-09-26T09:08:43.694Z,14.54
2018-09-26T09:09:43.682Z,15.17
2018-09-26T09:10:43.690Z,15.21
2018-09-26T09:11:43.744Z,15.33
2018-09-26T09:12:43.725Z,15.92
2018-09-26T09:13:43.744Z,16.45
2018-09-26T09:14:43.856Z,16.80
2018-09-26T09:15:43.722Z,16.80
2018-09-26T09:16:43.729Z,16.93
2018-09-26T09:17:43.765Z,16.42
2018-09-26T09:18:43.775Z,14.95
2018-09-26T09:19:43.753Z,14.64
2018-09-26T09:20:43.759Z,14.78
2018-09-26T09:21:43.770Z,15.57
2018-09-26T09:22:43.784Z,16.16
2018-09-26T09:23:43.850Z,16.59
2018-09-26T09:24:43.797Z,16.67
2018-09-26T09:25:43.820Z,16.85
2018-09-26T09:26:43.810Z,16.70
2018-09-26T09:27:43.908Z,16.35
2018-09-26T09:28:43.850Z,16.70
2018-09-26T09:29:43.837Z,16.35
2018-09-26T09:30:43.840Z,16.68
2018-09-26T09:31:43.850Z,16.12
2018-09-26T09:32:43.854Z,15.97
2018-09-26T09:33:43.890Z,16.25
2018-09-26T09:34:43.866Z,16.23
2018-09-26T09:35:43.878Z,15.67
2018-09-26T09:36:44.534Z,16.55
2018-09-26T09:37:43.899Z,16.93
2018-09-26T09:38:43.931Z,16.89
2018-09-26T09:39:43.918Z,16.90
2018-09-26T09:40:43.920Z,16.26
2018-09-26T09:41:43.933Z,15.67
2018-09-26T09:42:43.940Z,15.54
2018-09-26T09:43:43.975Z,15.75
2018-09-26T09:44:43.955Z,16.26
2018-09-26T09:45:43.962Z,16.50
2018-09-26T09:46:43.975Z,16.30
2018-09-26T09:47:43.983Z,15.78
2018-09-26T09:48:44.023Z,16.06
2018-09-26T09:49:43.999Z,16.45
2018-09-26T09:50:45.257Z,16.62
2018-09-26T09:51:44.079Z,16.63
2018-09-26T09:52:44.028Z,16.58
2018-09-26T09:53:44.065Z,16.85
2018-09-26T09:54:44.046Z,17.06
2018-09-26T09:55:44.053Z,17.54
2018-09-26T09:56:44.072Z,18.29
2018-09-26T09:57:46.023Z,18.22
2018-09-26T09:58:44.118Z,18.61
2018-09-26T09:59:44.101Z,18.59
2018-09-26T10:00:44.108Z,19.11
2018-09-26T10:01:44.113Z,19.36
2018-09-26T10:02:44.145Z,19.32
2018-09-26T10:03:44.178Z,18.90
2018-09-26T10:04:44.993Z,18.46
2018-09-26T10:05:44.163Z,18.64
2018-09-26T10:06:44.177Z,18.59
2018-09-26T10:07:44.186Z,18.67
2018-09-26T10:08:44.231Z,18.50
2018-09-26T10:09:44.203Z,18.72
2018-09-26T10:10:44.219Z,18.84
2018-09-26T10:11:44.230Z,18.95
2018-09-26T10:12:44.267Z,18.99
2018-09-26T10:13:44.251Z,18.58
2018-09-26T10:14:44.261Z,18.29
2018-09-26T10:15:44.273Z,18.13
2018-09-26T10:16:44.286Z,18.17
2018-09-26T10:17:44.322Z,18.40
2018-09-26T10:18:44.307Z,18.40
2018-09-26T10:19:44.359Z,18.39
2018-09-26T10:20:44.330Z,18.25
2018-09-26T10:21:44.339Z,18.37
2018-09-26T10:22:44.375Z,18.36
2018-09-26T10:23:44.358Z,18.42
2018-09-26T10:24:44.397Z,18.58
2018-09-26T10:25:44.382Z,18.79
2018-09-26T10:26:44.393Z,18.57
2018-09-26T10:27:44.433Z,18.91
2018-09-26T10:28:44.415Z,19.17
2018-09-26T10:29:44.424Z,19.33
2018-09-26T10:30:44.431Z,19.35
2018-09-26T10:31:44.446Z,19.39
2018-09-26T10:32:44.486Z,19.51
2018-09-26T10:33:44.471Z,19.39
2018-09-26T10:34:44.508Z,19.02
2018-09-26T10:35:44.495Z,19.20
2018-09-26T10:36:44.501Z,18.94
2018-09-26T10:37:44.542Z,19.13
2018-09-26T10:38:44.558Z,19.25
2018-09-26T10:39:44.543Z,19.08
2018-09-26T10:40:44.591Z,19.15
2018-09-26T10:41:44.562Z,19.53
2018-09-26T10:42:44.607Z,19.58
2018-09-26T10:43:44.614Z,19.10
2018-09-26T10:44:44.623Z,18.43
2018-09-26T10:45:44.605Z,18.57
2018-09-26T10:46:44.674Z,18.99
2018-09-26T10:47:44.662Z,19.21
2018-09-26T10:48:44.668Z,19.51
2018-09-26T10:49:44.649Z,19.39
2018-09-26T10:50:44.668Z,19.66
2018-09-26T10:51:44.680Z,20.05
2018-09-26T10:52:44.727Z,20.08
2018-09-26T10:53:44.732Z,20.12
2018-09-26T10:54:44.713Z,20.03
2018-09-26T10:55:44.724Z,19.97
2018-09-26T10:56:44.781Z,19.72
2018-09-26T10:57:44.783Z,20.28
2018-09-26T10:58:44.790Z,19.94
2018-09-26T10:59:44.776Z,20.47
2018-09-26T11:00:44.788Z,20.69
2018-09-26T11:01:44.807Z,20.18
2018-09-26T11:02:44.849Z,20.38
2018-09-26T11:03:44.857Z,20.16
2018-09-26T11:04:44.845Z,20.30
2018-09-26T11:05:44.859Z,20.38
2018-09-26T11:06:44.868Z,20.15
2018-09-26T11:07:44.874Z,19.97
2018-09-26T11:08:44.965Z,19.83
2018-09-26T11:09:44.914Z,18.86
2018-09-26T11:10:44.916Z,18.62
2018-09-26T11:11:44.927Z,18.43
2018-09-26T11:12:45.027Z,18.33
2018-09-26T11:13:44.982Z,18.36
2018-09-26T11:14:44.960Z,18.65
2018-09-26T11:15:44.969Z,18.42
2018-09-26T11:16:44.984Z,18.61
2018-09-26T11:17:44.990Z,17.95
2018-09-26T11:18:45.040Z,17.25
2018-09-26T11:19:45.010Z,17.46
2018-09-26T11:20:45.022Z,18.07
2018-09-26T11:21:45.030Z,18.61
2018-09-26T11:22:45.046Z,18.84
2018-09-26T11:23:45.078Z,19.02
2018-09-26T11:24:45.058Z,19.23
2018-09-26T11:25:45.075Z,19.53
2018-09-26T11:26:45.143Z,19.35
2018-09-26T11:27:45.082Z,19.23
2018-09-26T11:28:45.123Z,19.33
2018-09-26T11:29:45.108Z,19.24
2018-09-26T11:30:45.113Z,18.57
2018-09-26T11:31:45.123Z,18.87
2018-09-26T11:32:45.132Z,19.01
2018-09-26T11:33:45.273Z,19.65
2018-09-26T11:34:45.703Z,20.00
2018-09-26T11:35:45.162Z,20.41
2018-09-26T11:36:45.192Z,20.38
2018-09-26T11:37:45.176Z,20.13
2018-09-26T11:38:45.188Z,19.79
2018-09-26T11:39:45.224Z,19.66
2018-09-26T11:40:45.205Z,19.75
2018-09-26T11:41:45.213Z,19.61
2018-09-26T11:42:45.220Z,19.40
2018-09-26T11:43:45.267Z,19.33
2018-09-26T11:44:45.290Z,19.15
2018-09-26T11:45:45.248Z,19.21
2018-09-26T11:46:45.257Z,19.42
2018-09-26T11:47:45.262Z,19.72
2018-09-26T11:48:45.296Z,19.83
2018-09-26T11:49:45.282Z,19.68
2018-09-26T11:50:45.283Z,19.35
2018-09-26T11:51:45.289Z,19.33
2018-09-26T11:52:45.301Z,19.02
2018-09-26T11:53:45.333Z,18.84
2018-09-26T11:54:45.309Z,18.49
2018-09-26T11:55:45.323Z,18.43
2018-09-26T11:56:45.333Z,18.34
2018-09-26T11:57:45.329Z,18.34
2018-09-26T11:58:45.370Z,18.44
2018-09-26T11:59:45.348Z,18.40
2018-09-26T12:00:56.234Z,18.25
2018-09-26T12:01:45.355Z,17.95
2018-09-26T12:02:45.427Z,17.97
2018-09-26T12:03:45.398Z,18.00
2018-09-26T12:04:45.376Z,18.10
2018-09-26T12:05:45.384Z,18.28
2018-09-26T12:06:45.385Z,18.47
2018-09-26T12:07:45.376Z,18.73
2018-09-26T12:08:45.424Z,18.59
2018-09-26T12:09:45.397Z,18.46
2018-09-26T12:10:45.408Z,18.24
2018-09-26T12:11:45.417Z,18.46
2018-09-26T12:12:45.416Z,18.86
2018-09-26T12:13:45.512Z,19.06
2018-09-26T12:14:45.427Z,19.35
2018-09-26T12:15:45.431Z,19.33
2018-09-26T12:16:45.440Z,19.78
2018-09-26T12:17:45.443Z,19.83
2018-09-26T12:18:45.480Z,19.88
2018-09-26T12:19:45.455Z,19.93
2018-09-26T12:20:45.460Z,20.25
2018-09-26T12:21:45.724Z,20.50
2018-09-26T12:22:45.487Z,20.47
2018-09-26T12:23:45.509Z,20.79
2018-09-26T12:24:45.487Z,20.35
2018-09-26T12:25:45.492Z,20.18
2018-09-26T12:26:45.500Z,20.05
2018-09-26T12:27:45.566Z,20.41
2018-09-26T12:28:45.544Z,20.03
2018-09-26T12:29:45.517Z,19.40
2018-09-26T12:30:45.528Z,19.32
2018-09-26T12:31:45.540Z,19.14
2018-09-26T12:32:46.186Z,18.61
2018-09-26T12:33:46.310Z,18.46
2018-09-26T12:34:45.576Z,18.37
2018-09-26T12:35:46.241Z,18.27
2018-09-26T12:36:45.578Z,18.52
2018-09-26T12:37:46.136Z,18.52
2018-09-26T12:38:45.790Z,18.42
2018-09-26T12:39:45.593Z,18.57
2018-09-26T12:40:45.589Z,18.44
2018-09-26T12:41:46.611Z,18.19
2018-09-26T12:43:54.476Z,17.95
2018-09-26T12:44:46.733Z,17.95
2018-09-26T12:45:45.627Z,18.03
2018-09-26T12:46:45.619Z,17.89
2018-09-26T12:47:45.652Z,17.87
2018-09-26T12:48:45.630Z,17.87
2018-09-26T12:49:45.685Z,18.02
2018-09-26T12:50:50.117Z,18.03
2018-09-26T12:51:45.643Z,17.82
2018-09-26T12:52:45.675Z,17.67
2018-09-26T12:53:45.719Z,17.64
2018-09-26T12:54:45.655Z,17.62
2018-09-26T12:55:45.660Z,17.64
2018-09-26T12:56:45.660Z,17.89
2018-09-26T12:57:49.115Z,18.07
2018-09-26T12:58:45.695Z,18.10
2018-09-26T12:59:45.676Z,18.36
2018-09-26T13:00:45.685Z,18.31
2018-09-26T13:01:45.679Z,18.47
2018-09-26T13:02:47.668Z,18.79
2018-09-26T13:03:45.737Z,19.11
2018-09-26T13:04:45.692Z,19.61
2018-09-26T13:05:48.117Z,19.97
2018-09-26T13:06:45.708Z,19.87
2018-09-26T13:07:45.704Z,19.78
2018-09-26T13:08:51.196Z,19.76